SANT/TUC METAR and TAF weather

Enter ICAO airport designator
Station Type Date Time Source
SANT METAR 2021/07/29 18:00 UTC NOAA

SANT 291800Z VRB04KT 6000 NSC 17/M02 Q1024


Station Type Date Time Source
SANT Decoded METAR 2021/07/29 18:00 UTC NOAA

Tucuman Aerodrome, Argentina (SANT) 26-51S 065-06W 450M
Jul 29, 2021 - 02:00 PM EDT / 2021.07.29 1800 UTC
Wind: Variable at 5 MPH (4 KT):0
Visibility: 3 mile(s):0
Temperature: 62 F (17 C)
Dew Point: 28 F (-2 C)
Relative Humidity: 27%
Pressure (altimeter): 30.24 in. Hg (1024 hPa)
ob: SANT 291800Z VRB04KT 6000 NSC 17/M02 Q1024
cycle: 18

Station Type Date Time Source
SANT TAF 2021/07/29 18:21 UTC NOAA

TAF TAF SANT 291700Z 2918/3018 18005KT 7000 FU NSC TX18/3018Z TN03/3010Z
BECMG 3004/3007 32005KT CAVOK
BECMG 3015/3018 05010KT 8000 NSC

Example: see airport list